PWSweather.com
Personal Weather Stations
Station Observations
SBERGENWX
Wood Ridge, NJ 07075

Wood Ridge, NJ 07075

Lat: 40.851667, Lon: -74.088131

Elevation: 177

Station Type: Davis Vantage Vue

http://201weather.com/

High Low Average
Temperature 44.1°F6.7°C 38.1°F3.4°C 41.7°F5.4°C
Dew Point 42.8°F6.0°C 34.0°F1.1°C 39.7°F4.3°C
Winds 5.8 mph 9.3 kmh Calm Calm 1.0 mph S1.6 kmh S
Wind Gusts 11.5 mph18.5 kmh -- 3.0 mph4.8 kmh
Humidity 96% 81% 93%
Pressure 29.75 in1007.5 mb 29.40 in995.6 mb -
Precipitation 0.42 in10.7 mm - -
Hour Temp Dew Point Humidity Winds Wind Gusts Pressure Precip Precip Rate Daily Precip Total
12:00 AM 42.4°F5.8°C 37.9°F3.3°C 84% Calm Calm -- 29.78 in1008.5 mb - 0.00 in0.0 mm 0.00 in0.0 mm
12:15 AM 42.5°F5.8°C 38.0°F3.3°C 84% Calm Calm -- 29.77 in1008.1 mb - 0.00 in0.0 mm 0.00 in0.0 mm
12:30 AM 42.5°F5.8°C 38.0°F3.3°C 84% Calm Calm -- 29.77 in1008.1 mb - 0.00 in0.0 mm 0.00 in0.0 mm
12:45 AM 42.6°F5.9°C 38.1°F3.4°C 84% Calm Calm -- 29.76 in1007.8 mb - 0.00 in0.0 mm 0.00 in0.0 mm
01:00 AM 42.6°F5.9°C 38.1°F3.4°C 84% Calm Calm -- 29.75 in1007.5 mb - 0.00 in0.0 mm 0.00 in0.0 mm
01:15 AM 42.7°F5.9°C 38.2°F3.4°C 84% Calm Calm -- 29.75 in1007.5 mb - 0.00 in0.0 mm 0.00 in0.0 mm
01:30 AM 42.2°F5.7°C 38.3°F3.5°C 86% Calm Calm -- 29.74 in1007.1 mb - 0.00 in0.0 mm 0.00 in0.0 mm
01:45 AM 41.7°F5.4°C 38.4°F3.6°C 88% Calm Calm 1.2 mph1.9 kmh 29.73 in1006.8 mb - 0.01 in0.3 mm 0.01 in0.3 mm
02:00 AM 41.3°F5.2°C 38.3°F3.5°C 89% Calm Calm 1.2 mph1.9 kmh 29.71 in1006.1 mb - 0.01 in0.3 mm 0.01 in0.3 mm
02:15 AM 41.1°F5.1°C 38.4°F3.6°C 90% Calm Calm 1.2 mph1.9 kmh 29.71 in1006.1 mb - 0.01 in0.3 mm 0.01 in0.3 mm
02:30 AM 41.1°F5.1°C 38.7°F3.7°C 91% Calm Calm 1.2 mph1.9 kmh 29.71 in1006.1 mb - 0.01 in0.3 mm 0.01 in0.3 mm
02:45 AM 41.0°F5.0°C 38.6°F3.7°C 91% Calm Calm 1.2 mph1.9 kmh 29.70 in1005.8 mb - 0.01 in0.3 mm 0.02 in0.5 mm
03:00 AM 40.7°F4.8°C 38.6°F3.7°C 92% Calm Calm 2.3 mph3.7 kmh 29.70 in1005.8 mb - 0.04 in1.0 mm 0.05 in1.3 mm
03:15 AM 40.5°F4.7°C 38.6°F3.7°C 93% Calm Calm 1.2 mph1.9 kmh 29.69 in1005.4 mb - 0.08 in2.0 mm 0.09 in2.3 mm
03:30 AM 40.1°F4.5°C 38.2°F3.4°C 93% Calm Calm -- 29.70 in1005.8 mb - 0.14 in3.6 mm 0.15 in3.8 mm
03:45 AM 40.0°F4.4°C 38.4°F3.6°C 94% Calm Calm -- 29.69 in1005.4 mb - 0.15 in3.8 mm 0.17 in4.3 mm
04:00 AM 40.0°F4.4°C 38.4°F3.6°C 94% Calm Calm 2.3 mph3.7 kmh 29.67 in1004.7 mb - 0.14 in3.6 mm 0.18 in4.6 mm
04:15 AM 40.1°F4.5°C 38.8°F3.8°C 95% Calm Calm 1.2 mph1.9 kmh 29.66 in1004.4 mb - 0.11 in2.8 mm 0.19 in4.8 mm
04:30 AM 40.1°F4.5°C 38.8°F3.8°C 95% 1.2 mph NE1.9 kmh NE 2.3 mph3.7 kmh 29.64 in1003.7 mb - 0.04 in1.0 mm 0.19 in4.8 mm
04:45 AM 40.1°F4.5°C 38.8°F3.8°C 95% 1.2 mph NE1.9 kmh NE 1.2 mph1.9 kmh 29.64 in1003.7 mb - 0.02 in0.5 mm 0.19 in4.8 mm
05:00 AM 40.1°F4.5°C 38.8°F3.8°C 95% Calm Calm -- 29.64 in1003.7 mb - 0.04 in1.0 mm 0.22 in5.6 mm
05:15 AM 40.1°F4.5°C 38.8°F3.8°C 95% 1.2 mph NNE1.9 kmh NNE 1.2 mph1.9 kmh 29.62 in1003.0 mb - 0.05 in1.3 mm 0.24 in6.1 mm
05:30 AM 40.0°F4.4°C 38.7°F3.7°C 95% Calm Calm 2.3 mph3.7 kmh 29.61 in1002.7 mb - 0.06 in1.5 mm 0.25 in6.4 mm
05:45 AM 40.2°F4.6°C 39.1°F3.9°C 96% Calm Calm 3.5 mph5.6 kmh 29.61 in1002.7 mb - 0.06 in1.5 mm 0.25 in6.4 mm
06:00 AM 40.3°F4.6°C 39.3°F4.1°C 96% Calm Calm 1.2 mph1.9 kmh 29.59 in1002.0 mb - 0.03 in0.8 mm 0.25 in6.4 mm
06:15 AM 40.4°F4.7°C 39.4°F4.1°C 96% Calm Calm 1.2 mph1.9 kmh 29.59 in1002.0 mb - 0.01 in0.3 mm 0.25 in6.4 mm
06:30 AM 40.5°F4.7°C 39.4°F4.1°C 96% 1.2 mph N1.9 kmh N 1.2 mph1.9 kmh 29.58 in1001.7 mb - 0.00 in0.0 mm 0.25 in6.4 mm
06:45 AM 40.5°F4.7°C 39.5°F4.2°C 96% Calm Calm -- 29.57 in1001.4 mb - 0.00 in0.0 mm 0.25 in6.4 mm
07:00 AM 40.6°F4.8°C 39.5°F4.2°C 96% 1.2 mph N1.9 kmh N 2.3 mph3.7 kmh 29.56 in1001.0 mb - 0.00 in0.0 mm 0.25 in6.4 mm
07:15 AM 40.7°F4.8°C 39.6°F4.2°C 96% Calm Calm 1.2 mph1.9 kmh 29.56 in1001.0 mb - 0.00 in0.0 mm 0.25 in6.4 mm
07:30 AM 40.7°F4.8°C 39.6°F4.2°C 96% 1.2 mph NNE1.9 kmh NNE 1.2 mph1.9 kmh 29.55 in1000.7 mb - 0.00 in0.0 mm 0.25 in6.4 mm
07:45 AM 40.6°F4.8°C 39.5°F4.2°C 96% 1.2 mph NE1.9 kmh NE 2.3 mph3.7 kmh 29.55 in1000.7 mb - 0.00 in0.0 mm 0.25 in6.4 mm
08:00 AM 40.7°F4.8°C 39.6°F4.2°C 96% 1.2 mph NNE1.9 kmh NNE 3.5 mph5.6 kmh 29.55 in1000.7 mb - 0.00 in0.0 mm 0.25 in6.4 mm
08:15 AM 40.9°F4.9°C 39.8°F4.3°C 96% Calm Calm 2.3 mph3.7 kmh 29.55 in1000.7 mb - 0.00 in0.0 mm 0.25 in6.4 mm
08:30 AM 41.3°F5.2°C 40.2°F4.6°C 96% 1.2 mph NNE1.9 kmh NNE 2.3 mph3.7 kmh 29.54 in1000.3 mb - 0.01 in0.3 mm 0.26 in6.6 mm
08:45 AM 41.6°F5.3°C 40.5°F4.7°C 96% 2.3 mph NNE3.7 kmh NNE 3.5 mph5.6 kmh 29.54 in1000.3 mb - 0.01 in0.3 mm 0.26 in6.6 mm
09:00 AM 41.9°F5.5°C 40.8°F4.9°C 96% Calm Calm 3.5 mph5.6 kmh 29.53 in1000.0 mb - 0.01 in0.3 mm 0.26 in6.6 mm
09:15 AM 42.3°F5.7°C 41.2°F5.1°C 96% 2.3 mph NNE3.7 kmh NNE 3.5 mph5.6 kmh 29.53 in1000.0 mb - 0.01 in0.3 mm 0.26 in6.6 mm
09:30 AM 42.5°F5.8°C 41.4°F5.2°C 96% 2.3 mph NE3.7 kmh NE 9.2 mph14.8 kmh 29.52 in999.7 mb - 0.01 in0.3 mm 0.27 in6.9 mm
09:45 AM 42.5°F5.8°C 41.4°F5.2°C 96% 3.5 mph NE5.6 kmh NE 4.6 mph7.4 kmh 29.52 in999.7 mb - 0.01 in0.3 mm 0.27 in6.9 mm
10:00 AM 42.3°F5.7°C 41.2°F5.1°C 96% 1.2 mph NNE1.9 kmh NNE 4.6 mph7.4 kmh 29.51 in999.3 mb - 0.02 in0.5 mm 0.28 in7.1 mm
10:15 AM 42.3°F5.7°C 41.2°F5.1°C 96% 3.5 mph N5.6 kmh N 8.1 mph13.0 kmh 29.50 in999.0 mb - 0.03 in0.8 mm 0.29 in7.4 mm
10:30 AM 42.3°F5.7°C 41.2°F5.1°C 96% 3.5 mph NNE5.6 kmh NNE 6.9 mph11.1 kmh 29.50 in999.0 mb - 0.03 in0.8 mm 0.30 in7.6 mm
10:45 AM 42.3°F5.7°C 41.2°F5.1°C 96% 2.3 mph NNE3.7 kmh NNE 3.5 mph5.6 kmh 29.49 in998.6 mb - 0.03 in0.8 mm 0.30 in7.6 mm
11:00 AM 42.1°F5.6°C 41.0°F5.0°C 96% 1.2 mph N1.9 kmh N 3.5 mph5.6 kmh 29.49 in998.6 mb - 0.03 in0.8 mm 0.31 in7.9 mm
11:15 AM 42.1°F5.6°C 41.0°F5.0°C 96% 2.3 mph N3.7 kmh N 4.6 mph7.4 kmh 29.48 in998.3 mb - 0.02 in0.5 mm 0.31 in7.9 mm
11:30 AM 41.6°F5.3°C 40.6°F4.8°C 96% 4.6 mph NNE7.4 kmh NNE 8.1 mph13.0 kmh 29.48 in998.3 mb - 0.03 in0.8 mm 0.33 in8.4 mm
11:45 AM 41.5°F5.3°C 40.5°F4.7°C 96% 3.5 mph N5.6 kmh N 6.9 mph11.1 kmh 29.47 in998.0 mb - 0.04 in1.0 mm 0.34 in8.6 mm
12:00 PM 41.6°F5.3°C 40.5°F4.7°C 96% 3.5 mph N5.6 kmh N 8.1 mph13.0 kmh 29.46 in997.6 mb - 0.03 in0.8 mm 0.34 in8.6 mm
12:15 PM 41.7°F5.4°C 40.6°F4.8°C 96% 3.5 mph N5.6 kmh N 5.8 mph9.3 kmh 29.45 in997.3 mb - 0.04 in1.0 mm 0.35 in8.9 mm
12:30 PM 41.9°F5.5°C 40.8°F4.9°C 96% 3.5 mph N5.6 kmh N 5.8 mph9.3 kmh 29.44 in997.0 mb - 0.03 in0.8 mm 0.35 in8.9 mm
12:45 PM 42.0°F5.6°C 40.9°F4.9°C 96% 4.6 mph N7.4 kmh N 10.4 mph16.7 kmh 29.43 in996.6 mb - 0.01 in0.3 mm 0.35 in8.9 mm
01:00 PM 42.1°F5.6°C 41.0°F5.0°C 96% 5.8 mph N9.3 kmh N 8.1 mph13.0 kmh 29.42 in996.3 mb - 0.02 in0.5 mm 0.36 in9.1 mm
01:15 PM 42.4°F5.8°C 41.3°F5.2°C 96% 1.2 mph N1.9 kmh N 4.6 mph7.4 kmh 29.43 in996.6 mb - 0.01 in0.3 mm 0.36 in9.1 mm
01:30 PM 42.3°F5.7°C 41.3°F5.2°C 96% 4.6 mph N7.4 kmh N 6.9 mph11.1 kmh 29.42 in996.3 mb - 0.01 in0.3 mm 0.36 in9.1 mm
01:45 PM 42.5°F5.8°C 41.4°F5.2°C 96% 4.6 mph N7.4 kmh N 8.1 mph13.0 kmh 29.41 in995.9 mb - 0.02 in0.5 mm 0.37 in9.4 mm
02:00 PM 42.8°F6.0°C 41.7°F5.4°C 96% 2.3 mph N3.7 kmh N 6.9 mph11.1 kmh 29.40 in995.6 mb - 0.01 in0.3 mm 0.37 in9.4 mm
02:15 PM 42.9°F6.1°C 41.8°F5.4°C 96% 5.8 mph N9.3 kmh N 10.4 mph16.7 kmh 29.40 in995.6 mb - 0.01 in0.3 mm 0.37 in9.4 mm
02:30 PM 43.1°F6.2°C 41.8°F5.4°C 95% 3.5 mph N5.6 kmh N 8.1 mph13.0 kmh 29.40 in995.6 mb - 0.01 in0.3 mm 0.37 in9.4 mm
02:45 PM 43.3°F6.3°C 42.0°F5.6°C 95% 2.3 mph N3.7 kmh N 4.6 mph7.4 kmh 29.41 in995.9 mb - 0.00 in0.0 mm 0.37 in9.4 mm
03:00 PM 43.2°F6.2°C 41.5°F5.3°C 94% 4.6 mph NNW7.4 kmh NNW 5.8 mph9.3 kmh 29.41 in995.9 mb - 0.00 in0.0 mm 0.37 in9.4 mm
03:15 PM 43.1°F6.2°C 41.5°F5.3°C 94% 4.6 mph N7.4 kmh N 4.6 mph7.4 kmh 29.41 in995.9 mb - 0.01 in0.3 mm 0.38 in9.7 mm
03:30 PM 43.3°F6.3°C 41.9°F5.5°C 95% 3.5 mph N5.6 kmh N 11.5 mph18.5 kmh 29.41 in995.9 mb - 0.03 in0.8 mm 0.40 in10.2 mm
03:45 PM 43.4°F6.3°C 42.1°F5.6°C 95% 3.5 mph NNW5.6 kmh NNW 4.6 mph7.4 kmh 29.42 in996.3 mb - 0.04 in1.0 mm 0.41 in10.4 mm
04:00 PM 43.9°F6.6°C 42.6°F5.9°C 95% 1.2 mph NW1.9 kmh NW 2.3 mph3.7 kmh 29.43 in996.6 mb - 0.04 in1.0 mm 0.41 in10.4 mm
04:15 PM 44.1°F6.7°C 42.8°F6.0°C 95% 3.5 mph N5.6 kmh N 8.1 mph13.0 kmh 29.45 in997.3 mb - 0.04 in1.0 mm 0.42 in10.7 mm
04:30 PM 44.1°F6.7°C 42.7°F5.9°C 95% 2.3 mph NW3.7 kmh NW 3.5 mph5.6 kmh 29.46 in997.6 mb - 0.02 in0.5 mm 0.42 in10.7 mm
04:45 PM 43.7°F6.5°C 42.1°F5.6°C 94% 1.2 mph WNW1.9 kmh WNW 2.3 mph3.7 kmh 29.48 in998.3 mb - 0.01 in0.3 mm 0.42 in10.7 mm
05:00 PM 43.3°F6.3°C 41.7°F5.4°C 94% 3.5 mph NW5.6 kmh NW 8.1 mph13.0 kmh 29.48 in998.3 mb - 0.01 in0.3 mm 0.42 in10.7 mm
05:15 PM 42.9°F6.1°C 41.3°F5.2°C 94% 1.2 mph NW1.9 kmh NW 2.3 mph3.7 kmh 29.49 in998.6 mb - 0.00 in0.0 mm 0.42 in10.7 mm
05:30 PM 42.6°F5.9°C 41.0°F5.0°C 94% 1.2 mph NE1.9 kmh NE 3.5 mph5.6 kmh 29.51 in999.3 mb - 0.00 in0.0 mm 0.42 in10.7 mm
05:45 PM 42.7°F5.9°C 41.0°F5.0°C 94% 1.2 mph NW1.9 kmh NW 3.5 mph5.6 kmh 29.52 in999.7 mb - 0.00 in0.0 mm 0.42 in10.7 mm
06:00 PM 42.7°F5.9°C 41.1°F5.1°C 94% 2.3 mph NW3.7 kmh NW 3.5 mph5.6 kmh 29.53 in1000.0 mb - 0.00 in0.0 mm 0.42 in10.7 mm
06:15 PM 42.6°F5.9°C 41.0°F5.0°C 94% 1.2 mph N1.9 kmh N 2.3 mph3.7 kmh 29.54 in1000.3 mb - 0.00 in0.0 mm 0.42 in10.7 mm
06:30 PM 42.6°F5.9°C 41.0°F5.0°C 94% 1.2 mph NW1.9 kmh NW 3.5 mph5.6 kmh 29.55 in1000.7 mb - 0.00 in0.0 mm 0.42 in10.7 mm
06:45 PM 42.6°F5.9°C 41.0°F5.0°C 94% 1.2 mph NW1.9 kmh NW 3.5 mph5.6 kmh 29.57 in1001.4 mb - 0.00 in0.0 mm 0.42 in10.7 mm
07:00 PM 42.7°F5.9°C 41.1°F5.1°C 94% 1.2 mph N1.9 kmh N 3.5 mph5.6 kmh 29.58 in1001.7 mb - 0.00 in0.0 mm 0.42 in10.7 mm
07:15 PM 42.8°F6.0°C 41.2°F5.1°C 94% 1.2 mph N1.9 kmh N 1.2 mph1.9 kmh 29.59 in1002.0 mb - 0.00 in0.0 mm 0.42 in10.7 mm
07:30 PM 42.7°F5.9°C 40.8°F4.9°C 93% 2.3 mph NNW3.7 kmh NNW 2.3 mph3.7 kmh 29.60 in1002.4 mb - 0.00 in0.0 mm 0.42 in10.7 mm
07:45 PM 42.5°F5.8°C 40.9°F4.9°C 94% Calm Calm 2.3 mph3.7 kmh 29.60 in1002.4 mb - 0.00 in0.0 mm 0.42 in10.7 mm
08:00 PM 42.5°F5.8°C 40.9°F4.9°C 94% Calm Calm 1.2 mph1.9 kmh 29.61 in1002.7 mb - 0.00 in0.0 mm 0.42 in10.7 mm
08:15 PM 42.6°F5.9°C 41.0°F5.0°C 94% Calm Calm 2.3 mph3.7 kmh 29.62 in1003.0 mb - 0.00 in0.0 mm 0.42 in10.7 mm
08:30 PM 42.7°F5.9°C 40.8°F4.9°C 93% 1.2 mph NW1.9 kmh NW 2.3 mph3.7 kmh 29.63 in1003.4 mb - 0.00 in0.0 mm 0.42 in10.7 mm
08:45 PM 42.7°F5.9°C 40.3°F4.6°C 91% Calm Calm 1.2 mph1.9 kmh 29.64 in1003.7 mb - 0.00 in0.0 mm 0.42 in10.7 mm
09:00 PM 42.4°F5.8°C 39.7°F4.3°C 90% Calm Calm 2.3 mph3.7 kmh 29.65 in1004.1 mb - 0.00 in0.0 mm 0.42 in10.7 mm
09:15 PM 42.0°F5.6°C 39.3°F4.1°C 90% Calm Calm -- 29.65 in1004.1 mb - 0.00 in0.0 mm 0.42 in10.7 mm
09:30 PM 41.5°F5.3°C 38.8°F3.8°C 90% Calm Calm -- 29.64 in1003.7 mb - 0.00 in0.0 mm 0.42 in10.7 mm
09:45 PM 41.1°F5.1°C 38.4°F3.6°C 90% Calm Calm -- 29.66 in1004.4 mb - 0.00 in0.0 mm 0.42 in10.7 mm
10:00 PM 41.2°F5.1°C 38.2°F3.4°C 89% Calm Calm 2.3 mph3.7 kmh 29.66 in1004.4 mb - 0.00 in0.0 mm 0.42 in10.7 mm
10:15 PM 41.4°F5.2°C 37.8°F3.2°C 87% 2.3 mph W3.7 kmh W 4.6 mph7.4 kmh 29.67 in1004.7 mb - 0.00 in0.0 mm 0.42 in10.7 mm
10:30 PM 41.4°F5.2°C 36.9°F2.7°C 84% Calm Calm 1.2 mph1.9 kmh 29.68 in1005.1 mb - 0.00 in0.0 mm 0.42 in10.7 mm
10:45 PM 40.9°F4.9°C 36.4°F2.4°C 84% Calm Calm -- 29.68 in1005.1 mb - 0.00 in0.0 mm 0.42 in10.7 mm
11:00 PM 40.8°F4.9°C 36.0°F2.2°C 83% Calm Calm 2.3 mph3.7 kmh 29.68 in1005.1 mb - 0.00 in0.0 mm 0.42 in10.7 mm
11:15 PM 40.9°F4.9°C 35.5°F1.9°C 81% 1.2 mph W1.9 kmh W 3.5 mph5.6 kmh 29.68 in1005.1 mb - 0.00 in0.0 mm 0.42 in10.7 mm
11:30 PM 40.2°F4.6°C 35.4°F1.9°C 83% Calm Calm 2.3 mph3.7 kmh 29.69 in1005.4 mb - 0.00 in0.0 mm 0.42 in10.7 mm
11:45 PM 39.8°F4.3°C 35.4°F1.9°C 84% Calm Calm 1.2 mph1.9 kmh 29.69 in1005.4 mb - 0.00 in0.0 mm 0.42 in10.7 mm